sensor_id;sensor_type;location;lat;lon;timestamp;P1;durP1;ratioP1;P2;durP2;ratioP2
51214;SDS011;63849;47.546;19.254;2023-02-27T00:01:12;6.22;;;4.63;;
51214;SDS011;63849;47.546;19.254;2023-02-27T00:03:39;6.85;;;4.53;;
51214;SDS011;63849;47.546;19.254;2023-02-27T00:06:05;6.82;;;4.68;;
51214;SDS011;63849;47.546;19.254;2023-02-27T00:08:33;4.63;;;4.18;;
51214;SDS011;63849;47.546;19.254;2023-02-27T00:10:59;6.95;;;4.57;;
51214;SDS011;63849;47.546;19.254;2023-02-27T00:13:25;6.45;;;4.80;;
51214;SDS011;63849;47.546;19.254;2023-02-27T00:15:50;6.25;;;4.78;;
51214;SDS011;63849;47.546;19.254;2023-02-27T00:18:16;7.18;;;4.85;;
51214;SDS011;63849;47.546;19.254;2023-02-27T00:20:42;6.15;;;4.38;;
51214;SDS011;63849;47.546;19.254;2023-02-27T00:23:08;9.63;;;5.00;;
51214;SDS011;63849;47.546;19.254;2023-02-27T00:25:36;6.53;;;4.65;;
51214;SDS011;63849;47.546;19.254;2023-02-27T00:28:02;6.60;;;3.95;;
51214;SDS011;63849;47.546;19.254;2023-02-27T00:30:29;7.97;;;5.05;;
51214;SDS011;63849;47.546;19.254;2023-02-27T00:32:54;6.32;;;4.50;;
51214;SDS011;63849;47.546;19.254;2023-02-27T00:35:20;7.07;;;5.00;;
51214;SDS011;63849;47.546;19.254;2023-02-27T00:37:46;6.50;;;4.28;;
51214;SDS011;63849;47.546;19.254;2023-02-27T00:40:13;5.70;;;4.10;;
51214;SDS011;63849;47.546;19.254;2023-02-27T00:42:39;8.00;;;4.72;;
51214;SDS011;63849;47.546;19.254;2023-02-27T00:45:06;5.43;;;4.50;;
51214;SDS011;63849;47.546;19.254;2023-02-27T00:47:33;7.63;;;4.55;;
51214;SDS011;63849;47.546;19.254;2023-02-27T00:49:59;8.52;;;4.85;;
51214;SDS011;63849;47.546;19.254;2023-02-27T00:52:26;7.53;;;4.68;;
51214;SDS011;63849;47.546;19.254;2023-02-27T00:57:42;7.07;;;4.20;;
51214;SDS011;63849;47.546;19.254;2023-02-27T01:00:09;6.25;;;4.03;;
51214;SDS011;63849;47.546;19.254;2023-02-27T01:02:36;6.20;;;4.82;;
51214;SDS011;63849;47.546;19.254;2023-02-27T01:05:02;9.38;;;4.75;;
51214;SDS011;63849;47.546;19.254;2023-02-27T01:07:28;7.00;;;4.32;;
51214;SDS011;63849;47.546;19.254;2023-02-27T01:09:54;9.35;;;5.30;;
51214;SDS011;63849;47.546;19.254;2023-02-27T01:12:20;8.30;;;4.78;;
51214;SDS011;63849;47.546;19.254;2023-02-27T01:14:47;4.88;;;4.28;;
51214;SDS011;63849;47.546;19.254;2023-02-27T01:17:13;6.68;;;4.20;;
51214;SDS011;63849;47.546;19.254;2023-02-27T01:19:39;6.22;;;4.20;;
51214;SDS011;63849;47.546;19.254;2023-02-27T01:22:05;6.90;;;4.60;;
51214;SDS011;63849;47.546;19.254;2023-02-27T01:24:31;7.05;;;4.40;;
51214;SDS011;63849;47.546;19.254;2023-02-27T01:26:57;6.60;;;4.28;;
51214;SDS011;63849;47.546;19.254;2023-02-27T01:29:23;7.20;;;4.20;;
51214;SDS011;63849;47.546;19.254;2023-02-27T01:31:49;6.60;;;4.00;;
51214;SDS011;63849;47.546;19.254;2023-02-27T01:34:15;5.80;;;4.30;;
51214;SDS011;63849;47.546;19.254;2023-02-27T01:36:41;6.78;;;4.57;;
51214;SDS011;63849;47.546;19.254;2023-02-27T01:39:07;6.88;;;4.22;;
51214;SDS011;63849;47.546;19.254;2023-02-27T01:41:33;5.32;;;3.83;;
51214;SDS011;63849;47.546;19.254;2023-02-27T01:44:00;6.22;;;4.60;;
51214;SDS011;63849;47.546;19.254;2023-02-27T01:46:29;6.75;;;3.97;;
51214;SDS011;63849;47.546;19.254;2023-02-27T01:49:01;6.70;;;4.60;;
51214;SDS011;63849;47.546;19.254;2023-02-27T01:51:36;5.65;;;4.15;;
51214;SDS011;63849;47.546;19.254;2023-02-27T01:54:06;7.20;;;4.53;;
51214;SDS011;63849;47.546;19.254;2023-02-27T01:56:34;6.15;;;4.03;;
51214;SDS011;63849;47.546;19.254;2023-02-27T01:59:03;5.00;;;3.90;;
51214;SDS011;63849;47.546;19.254;2023-02-27T02:01:31;5.68;;;4.00;;
51214;SDS011;63849;47.546;19.254;2023-02-27T02:06:35;6.90;;;4.18;;
51214;SDS011;63849;47.546;19.254;2023-02-27T02:09:03;5.43;;;3.67;;
51214;SDS011;63849;47.546;19.254;2023-02-27T02:11:31;5.43;;;3.55;;
51214;SDS011;63849;47.546;19.254;2023-02-27T02:13:58;8.00;;;4.07;;
51214;SDS011;63849;47.546;19.254;2023-02-27T02:21:55;7.00;;;3.72;;
51214;SDS011;63849;47.546;19.254;2023-02-27T02:33:20;6.23;;;3.73;;
51214;SDS011;63849;47.546;19.254;2023-02-27T02:41:33;4.85;;;4.00;;
51214;SDS011;63849;47.546;19.254;2023-02-27T02:44:04;6.32;;;4.05;;
51214;SDS011;63849;47.546;19.254;2023-02-27T02:46:49;8.20;;;4.38;;
51214;SDS011;63849;47.546;19.254;2023-02-27T02:49:33;5.93;;;3.90;;
51214;SDS011;63849;47.546;19.254;2023-02-27T02:52:38;5.68;;;3.65;;
51214;SDS011;63849;47.546;19.254;2023-02-27T02:55:34;5.63;;;3.70;;
51214;SDS011;63849;47.546;19.254;2023-02-27T02:58:23;5.80;;;3.67;;
51214;SDS011;63849;47.546;19.254;2023-02-27T03:00:55;6.88;;;3.50;;
51214;SDS011;63849;47.546;19.254;2023-02-27T03:04:13;5.15;;;3.47;;
51214;SDS011;63849;47.546;19.254;2023-02-27T03:06:35;5.75;;;3.80;;
51214;SDS011;63849;47.546;19.254;2023-02-27T03:09:20;6.38;;;4.03;;
51214;SDS011;63849;47.546;19.254;2023-02-27T03:11:47;5.35;;;3.17;;
51214;SDS011;63849;47.546;19.254;2023-02-27T03:14:23;4.45;;;3.28;;
51214;SDS011;63849;47.546;19.254;2023-02-27T03:16:59;4.30;;;2.70;;
51214;SDS011;63849;47.546;19.254;2023-02-27T03:19:51;4.43;;;3.03;;
51214;SDS011;63849;47.546;19.254;2023-02-27T03:22:45;6.47;;;3.38;;
51214;SDS011;63849;47.546;19.254;2023-02-27T03:25:11;5.15;;;3.42;;
51214;SDS011;63849;47.546;19.254;2023-02-27T03:27:43;5.95;;;3.20;;
51214;SDS011;63849;47.546;19.254;2023-02-27T03:30:22;5.68;;;3.67;;
51214;SDS011;63849;47.546;19.254;2023-02-27T03:35:43;4.65;;;3.05;;
51214;SDS011;63849;47.546;19.254;2023-02-27T03:41:20;4.68;;;3.45;;
51214;SDS011;63849;47.546;19.254;2023-02-27T03:44:04;5.60;;;3.58;;
51214;SDS011;63849;47.546;19.254;2023-02-27T03:46:38;5.85;;;3.65;;
51214;SDS011;63849;47.546;19.254;2023-02-27T03:49:05;6.30;;;3.67;;
51214;SDS011;63849;47.546;19.254;2023-02-27T03:51:31;5.07;;;3.08;;
51214;SDS011;63849;47.546;19.254;2023-02-27T03:56:41;5.18;;;2.92;;
51214;SDS011;63849;47.546;19.254;2023-02-27T03:59:11;7.72;;;3.63;;
51214;SDS011;63849;47.546;19.254;2023-02-27T04:01:39;6.72;;;3.33;;
51214;SDS011;63849;47.546;19.254;2023-02-27T04:04:12;7.93;;;4.20;;
51214;SDS011;63849;47.546;19.254;2023-02-27T04:06:41;8.02;;;4.30;;
51214;SDS011;63849;47.546;19.254;2023-02-27T04:09:36;6.53;;;4.13;;
51214;SDS011;63849;47.546;19.254;2023-02-27T04:17:47;12.88;;;7.25;;
51214;SDS011;63849;47.546;19.254;2023-02-27T04:20:40;9.52;;;5.75;;
51214;SDS011;63849;47.546;19.254;2023-02-27T04:23:42;13.57;;;6.18;;
51214;SDS011;63849;47.546;19.254;2023-02-27T04:26:31;20.77;;;8.93;;
51214;SDS011;63849;47.546;19.254;2023-02-27T04:29:10;14.27;;;5.68;;
51214;SDS011;63849;47.546;19.254;2023-02-27T04:31:58;13.88;;;7.30;;
51214;SDS011;63849;47.546;19.254;2023-02-27T04:34:58;6.53;;;3.60;;
51214;SDS011;63849;47.546;19.254;2023-02-27T04:40:06;5.43;;;3.10;;
51214;SDS011;63849;47.546;19.254;2023-02-27T04:42:40;9.13;;;4.25;;
51214;SDS011;63849;47.546;19.254;2023-02-27T04:45:12;6.20;;;3.50;;
51214;SDS011;63849;47.546;19.254;2023-02-27T04:48:01;6.00;;;4.18;;
51214;SDS011;63849;47.546;19.254;2023-02-27T04:50:33;8.18;;;4.55;;
51214;SDS011;63849;47.546;19.254;2023-02-27T04:53:10;5.80;;;3.42;;
51214;SDS011;63849;47.546;19.254;2023-02-27T04:55:49;6.53;;;3.80;;
51214;SDS011;63849;47.546;19.254;2023-02-27T04:58:20;7.15;;;3.63;;
51214;SDS011;63849;47.546;19.254;2023-02-27T05:01:00;4.28;;;2.85;;
51214;SDS011;63849;47.546;19.254;2023-02-27T05:03:33;7.65;;;4.15;;
51214;SDS011;63849;47.546;19.254;2023-02-27T05:06:03;6.40;;;3.67;;
51214;SDS011;63849;47.546;19.254;2023-02-27T05:11:20;12.80;;;5.85;;
51214;SDS011;63849;47.546;19.254;2023-02-27T05:16:22;12.55;;;5.72;;
51214;SDS011;63849;47.546;19.254;2023-02-27T05:18:57;14.15;;;5.57;;
51214;SDS011;63849;47.546;19.254;2023-02-27T05:21:25;7.57;;;3.97;;
51214;SDS011;63849;47.546;19.254;2023-02-27T05:27:05;23.00;;;6.90;;
51214;SDS011;63849;47.546;19.254;2023-02-27T05:32:29;17.05;;;5.75;;
51214;SDS011;63849;47.546;19.254;2023-02-27T05:35:19;14.55;;;5.15;;
51214;SDS011;63849;47.546;19.254;2023-02-27T05:37:59;5.90;;;3.10;;
51214;SDS011;63849;47.546;19.254;2023-02-27T05:40:33;10.38;;;3.65;;
51214;SDS011;63849;47.546;19.254;2023-02-27T05:46:02;14.80;;;5.88;;
51214;SDS011;63849;47.546;19.254;2023-02-27T05:48:35;12.32;;;6.00;;
51214;SDS011;63849;47.546;19.254;2023-02-27T05:51:06;12.02;;;5.30;;
51214;SDS011;63849;47.546;19.254;2023-02-27T05:53:37;9.27;;;4.68;;
51214;SDS011;63849;47.546;19.254;2023-02-27T05:56:06;10.88;;;4.63;;
51214;SDS011;63849;47.546;19.254;2023-02-27T05:58:35;13.05;;;6.13;;
51214;SDS011;63849;47.546;19.254;2023-02-27T06:01:06;10.07;;;5.53;;
51214;SDS011;63849;47.546;19.254;2023-02-27T06:03:34;16.25;;;7.63;;
51214;SDS011;63849;47.546;19.254;2023-02-27T06:06:05;16.60;;;8.23;;
51214;SDS011;63849;47.546;19.254;2023-02-27T06:08:36;17.70;;;8.05;;
51214;SDS011;63849;47.546;19.254;2023-02-27T06:11:01;15.10;;;6.45;;
51214;SDS011;63849;47.546;19.254;2023-02-27T06:13:27;17.15;;;7.65;;
51214;SDS011;63849;47.546;19.254;2023-02-27T06:15:53;22.75;;;9.38;;
51214;SDS011;63849;47.546;19.254;2023-02-27T06:18:19;17.98;;;9.05;;
51214;SDS011;63849;47.546;19.254;2023-02-27T06:20:51;14.25;;;7.78;;
51214;SDS011;63849;47.546;19.254;2023-02-27T06:23:17;21.33;;;8.95;;
51214;SDS011;63849;47.546;19.254;2023-02-27T06:25:43;17.60;;;7.35;;
51214;SDS011;63849;47.546;19.254;2023-02-27T06:28:12;19.15;;;8.80;;
51214;SDS011;63849;47.546;19.254;2023-02-27T06:30:41;11.48;;;4.55;;
51214;SDS011;63849;47.546;19.254;2023-02-27T06:33:10;6.65;;;3.47;;
51214;SDS011;63849;47.546;19.254;2023-02-27T06:35:39;7.72;;;4.78;;
51214;SDS011;63849;47.546;19.254;2023-02-27T06:38:08;10.50;;;4.65;;
51214;SDS011;63849;47.546;19.254;2023-02-27T06:40:34;10.93;;;5.95;;
51214;SDS011;63849;47.546;19.254;2023-02-27T06:43:03;13.60;;;5.35;;
51214;SDS011;63849;47.546;19.254;2023-02-27T06:45:30;14.32;;;5.13;;
51214;SDS011;63849;47.546;19.254;2023-02-27T06:47:59;13.13;;;6.13;;
51214;SDS011;63849;47.546;19.254;2023-02-27T06:50:25;17.65;;;6.00;;
51214;SDS011;63849;47.546;19.254;2023-02-27T06:52:51;8.60;;;4.53;;
51214;SDS011;63849;47.546;19.254;2023-02-27T06:55:17;13.95;;;6.75;;
51214;SDS011;63849;47.546;19.254;2023-02-27T06:57:48;12.68;;;6.00;;
51214;SDS011;63849;47.546;19.254;2023-02-27T07:00:14;15.52;;;7.10;;
51214;SDS011;63849;47.546;19.254;2023-02-27T07:02:40;11.25;;;5.00;;
51214;SDS011;63849;47.546;19.254;2023-02-27T07:05:07;11.40;;;5.40;;
51214;SDS011;63849;47.546;19.254;2023-02-27T07:07:35;11.68;;;5.28;;
51214;SDS011;63849;47.546;19.254;2023-02-27T07:10:01;14.32;;;5.90;;
51214;SDS011;63849;47.546;19.254;2023-02-27T07:12:27;10.35;;;4.88;;
51214;SDS011;63849;47.546;19.254;2023-02-27T07:14:53;5.55;;;3.83;;
51214;SDS011;63849;47.546;19.254;2023-02-27T07:17:19;5.10;;;3.30;;
51214;SDS011;63849;47.546;19.254;2023-02-27T07:19:46;5.65;;;2.83;;
51214;SDS011;63849;47.546;19.254;2023-02-27T07:22:12;5.32;;;3.10;;
51214;SDS011;63849;47.546;19.254;2023-02-27T07:24:38;6.85;;;3.00;;
51214;SDS011;63849;47.546;19.254;2023-02-27T07:27:04;6.30;;;3.50;;
51214;SDS011;63849;47.546;19.254;2023-02-27T07:29:29;5.45;;;3.00;;
51214;SDS011;63849;47.546;19.254;2023-02-27T07:31:55;5.30;;;2.92;;
51214;SDS011;63849;47.546;19.254;2023-02-27T07:34:21;6.47;;;2.95;;
51214;SDS011;63849;47.546;19.254;2023-02-27T07:36:46;6.40;;;3.30;;
51214;SDS011;63849;47.546;19.254;2023-02-27T07:39:12;7.00;;;3.20;;
51214;SDS011;63849;47.546;19.254;2023-02-27T07:41:44;5.25;;;3.25;;
51214;SDS011;63849;47.546;19.254;2023-02-27T07:44:10;6.43;;;3.80;;
51214;SDS011;63849;47.546;19.254;2023-02-27T07:46:36;6.57;;;3.58;;
51214;SDS011;63849;47.546;19.254;2023-02-27T07:49:01;7.72;;;4.03;;
51214;SDS011;63849;47.546;19.254;2023-02-27T07:51:27;5.30;;;3.83;;
51214;SDS011;63849;47.546;19.254;2023-02-27T07:53:55;5.22;;;3.47;;
51214;SDS011;63849;47.546;19.254;2023-02-27T07:56:22;4.85;;;2.90;;
51214;SDS011;63849;47.546;19.254;2023-02-27T07:58:48;6.35;;;2.92;;
51214;SDS011;63849;47.546;19.254;2023-02-27T08:01:14;6.20;;;2.85;;
51214;SDS011;63849;47.546;19.254;2023-02-27T08:03:40;6.57;;;3.20;;
51214;SDS011;63849;47.546;19.254;2023-02-27T08:06:06;11.45;;;3.28;;
51214;SDS011;63849;47.546;19.254;2023-02-27T08:08:31;7.72;;;3.38;;
51214;SDS011;63849;47.546;19.254;2023-02-27T08:10:57;5.97;;;3.30;;
51214;SDS011;63849;47.546;19.254;2023-02-27T08:13:23;5.43;;;3.20;;
51214;SDS011;63849;47.546;19.254;2023-02-27T08:15:49;6.28;;;2.85;;
51214;SDS011;63849;47.546;19.254;2023-02-27T08:18:15;5.10;;;2.50;;
51214;SDS011;63849;47.546;19.254;2023-02-27T08:20:40;5.88;;;2.53;;
51214;SDS011;63849;47.546;19.254;2023-02-27T08:23:06;7.53;;;2.78;;
51214;SDS011;63849;47.546;19.254;2023-02-27T08:25:32;4.72;;;2.60;;
51214;SDS011;63849;47.546;19.254;2023-02-27T08:27:58;6.30;;;2.72;;
51214;SDS011;63849;47.546;19.254;2023-02-27T08:30:24;3.72;;;2.88;;
51214;SDS011;63849;47.546;19.254;2023-02-27T08:32:50;5.10;;;2.72;;
51214;SDS011;63849;47.546;19.254;2023-02-27T08:35:15;4.50;;;3.00;;
51214;SDS011;63849;47.546;19.254;2023-02-27T08:37:41;6.32;;;3.75;;
51214;SDS011;63849;47.546;19.254;2023-02-27T08:40:07;4.60;;;2.95;;
51214;SDS011;63849;47.546;19.254;2023-02-27T08:42:35;3.28;;;2.22;;
51214;SDS011;63849;47.546;19.254;2023-02-27T08:45:01;4.80;;;2.42;;
51214;SDS011;63849;47.546;19.254;2023-02-27T08:47:28;4.05;;;2.63;;
51214;SDS011;63849;47.546;19.254;2023-02-27T08:49:53;3.97;;;2.35;;
51214;SDS011;63849;47.546;19.254;2023-02-27T08:52:20;6.18;;;3.88;;
51214;SDS011;63849;47.546;19.254;2023-02-27T08:54:46;9.30;;;4.72;;
51214;SDS011;63849;47.546;19.254;2023-02-27T08:57:12;6.55;;;3.33;;
51214;SDS011;63849;47.546;19.254;2023-02-27T08:59:38;11.65;;;6.63;;
51214;SDS011;63849;47.546;19.254;2023-02-27T09:02:03;4.28;;;2.75;;
51214;SDS011;63849;47.546;19.254;2023-02-27T09:04:30;3.72;;;2.30;;
51214;SDS011;63849;47.546;19.254;2023-02-27T09:06:56;6.63;;;3.97;;
51214;SDS011;63849;47.546;19.254;2023-02-27T09:09:22;6.53;;;3.05;;
51214;SDS011;63849;47.546;19.254;2023-02-27T09:11:48;7.10;;;3.20;;
51214;SDS011;63849;47.546;19.254;2023-02-27T09:14:15;7.60;;;3.42;;
51214;SDS011;63849;47.546;19.254;2023-02-27T09:16:40;9.00;;;4.13;;
51214;SDS011;63849;47.546;19.254;2023-02-27T09:19:06;5.25;;;2.65;;
51214;SDS011;63849;47.546;19.254;2023-02-27T09:21:32;4.25;;;3.08;;
51214;SDS011;63849;47.546;19.254;2023-02-27T09:23:58;5.63;;;3.42;;
51214;SDS011;63849;47.546;19.254;2023-02-27T09:26:24;5.45;;;3.00;;
51214;SDS011;63849;47.546;19.254;2023-02-27T09:28:50;7.43;;;3.00;;
51214;SDS011;63849;47.546;19.254;2023-02-27T09:31:16;6.55;;;3.65;;
51214;SDS011;63849;47.546;19.254;2023-02-27T09:33:42;5.78;;;3.28;;
51214;SDS011;63849;47.546;19.254;2023-02-27T09:36:11;5.78;;;2.50;;
51214;SDS011;63849;47.546;19.254;2023-02-27T09:38:37;5.93;;;2.92;;
51214;SDS011;63849;47.546;19.254;2023-02-27T09:41:03;4.45;;;2.95;;
51214;SDS011;63849;47.546;19.254;2023-02-27T09:45:59;4.45;;;3.03;;
51214;SDS011;63849;47.546;19.254;2023-02-27T09:48:30;5.75;;;3.63;;
51214;SDS011;63849;47.546;19.254;2023-02-27T09:51:00;5.93;;;3.60;;
51214;SDS011;63849;47.546;19.254;2023-02-27T09:53:43;6.32;;;3.47;;
51214;SDS011;63849;47.546;19.254;2023-02-27T09:56:22;7.70;;;4.05;;
51214;SDS011;63849;47.546;19.254;2023-02-27T09:59:14;11.15;;;3.88;;
51214;SDS011;63849;47.546;19.254;2023-02-27T10:01:50;4.68;;;2.88;;
51214;SDS011;63849;47.546;19.254;2023-02-27T10:07:19;7.53;;;4.70;;
51214;SDS011;63849;47.546;19.254;2023-02-27T10:13:05;10.23;;;5.72;;
51214;SDS011;63849;47.546;19.254;2023-02-27T10:15:40;8.13;;;4.15;;
51214;SDS011;63849;47.546;19.254;2023-02-27T10:18:12;5.57;;;3.20;;
51214;SDS011;63849;47.546;19.254;2023-02-27T10:20:53;11.40;;;5.18;;
51214;SDS011;63849;47.546;19.254;2023-02-27T10:26:17;12.93;;;5.55;;
51214;SDS011;63849;47.546;19.254;2023-02-27T10:28:46;5.60;;;2.40;;
51214;SDS011;63849;47.546;19.254;2023-02-27T10:31:16;4.20;;;2.92;;
51214;SDS011;63849;47.546;19.254;2023-02-27T10:33:44;4.78;;;3.42;;
51214;SDS011;63849;47.546;19.254;2023-02-27T10:36:13;6.30;;;3.58;;
51214;SDS011;63849;47.546;19.254;2023-02-27T10:41:10;7.22;;;3.97;;
51214;SDS011;63849;47.546;19.254;2023-02-27T10:43:38;5.30;;;3.60;;
51214;SDS011;63849;47.546;19.254;2023-02-27T10:46:24;4.82;;;3.35;;
51214;SDS011;63849;47.546;19.254;2023-02-27T10:48:52;5.97;;;3.72;;
51214;SDS011;63849;47.546;19.254;2023-02-27T10:53:47;7.53;;;4.00;;
51214;SDS011;63849;47.546;19.254;2023-02-27T10:56:23;8.57;;;5.45;;
51214;SDS011;63849;47.546;19.254;2023-02-27T10:59:04;7.18;;;4.05;;
51214;SDS011;63849;47.546;19.254;2023-02-27T11:04:45;5.15;;;4.05;;
51214;SDS011;63849;47.546;19.254;2023-02-27T11:07:37;7.47;;;3.53;;
51214;SDS011;63849;47.546;19.254;2023-02-27T11:10:14;4.93;;;3.42;;
51214;SDS011;63849;47.546;19.254;2023-02-27T11:12:56;7.25;;;5.70;;
51214;SDS011;63849;47.546;19.254;2023-02-27T11:15:28;9.38;;;5.35;;
51214;SDS011;63849;47.546;19.254;2023-02-27T11:20:54;4.72;;;4.07;;
51214;SDS011;63849;47.546;19.254;2023-02-27T11:23:36;8.20;;;5.22;;
51214;SDS011;63849;47.546;19.254;2023-02-27T11:26:10;7.93;;;3.88;;
51214;SDS011;63849;47.546;19.254;2023-02-27T11:28:41;8.07;;;3.92;;
51214;SDS011;63849;47.546;19.254;2023-02-27T11:31:19;5.88;;;4.03;;
51214;SDS011;63849;47.546;19.254;2023-02-27T11:33:54;5.40;;;4.00;;
51214;SDS011;63849;47.546;19.254;2023-02-27T11:36:21;7.45;;;4.07;;
51214;SDS011;63849;47.546;19.254;2023-02-27T11:38:54;5.45;;;3.38;;
51214;SDS011;63849;47.546;19.254;2023-02-27T11:41:31;4.97;;;3.53;;
51214;SDS011;63849;47.546;19.254;2023-02-27T11:43:58;4.22;;;3.63;;
51214;SDS011;63849;47.546;19.254;2023-02-27T11:46:26;4.75;;;3.35;;
51214;SDS011;63849;47.546;19.254;2023-02-27T11:48:55;6.97;;;4.32;;
51214;SDS011;63849;47.546;19.254;2023-02-27T11:57:17;5.47;;;4.43;;
51214;SDS011;63849;47.546;19.254;2023-02-27T12:02:44;5.03;;;3.80;;
51214;SDS011;63849;47.546;19.254;2023-02-27T12:05:29;7.63;;;4.85;;
51214;SDS011;63849;47.546;19.254;2023-02-27T12:13:37;7.15;;;4.68;;
51214;SDS011;63849;47.546;19.254;2023-02-27T12:16:15;10.75;;;4.70;;
51214;SDS011;63849;47.546;19.254;2023-02-27T12:18:58;8.43;;;5.50;;
51214;SDS011;63849;47.546;19.254;2023-02-27T12:21:35;8.75;;;7.88;;
51214;SDS011;63849;47.546;19.254;2023-02-27T12:26:51;9.75;;;5.50;;
51214;SDS011;63849;47.546;19.254;2023-02-27T12:37:14;8.15;;;5.35;;
51214;SDS011;63849;47.546;19.254;2023-02-27T12:39:46;8.77;;;5.32;;
51214;SDS011;63849;47.546;19.254;2023-02-27T12:50:16;7.80;;;5.07;;
51214;SDS011;63849;47.546;19.254;2023-02-27T13:00:34;8.82;;;4.93;;
51214;SDS011;63849;47.546;19.254;2023-02-27T13:03:15;8.57;;;4.95;;
51214;SDS011;63849;47.546;19.254;2023-02-27T13:06:07;13.40;;;7.95;;
51214;SDS011;63849;47.546;19.254;2023-02-27T13:17:16;6.43;;;4.68;;
51214;SDS011;63849;47.546;19.254;2023-02-27T13:20:04;7.40;;;5.25;;
51214;SDS011;63849;47.546;19.254;2023-02-27T13:22:52;8.18;;;5.20;;
51214;SDS011;63849;47.546;19.254;2023-02-27T13:25:46;7.82;;;5.70;;
51214;SDS011;63849;47.546;19.254;2023-02-27T13:28:17;9.30;;;6.35;;
51214;SDS011;63849;47.546;19.254;2023-02-27T13:36:21;9.95;;;5.28;;
51214;SDS011;63849;47.546;19.254;2023-02-27T13:38:54;7.97;;;5.43;;
51214;SDS011;63849;47.546;19.254;2023-02-27T13:43:51;10.90;;;6.03;;
51214;SDS011;63849;47.546;19.254;2023-02-27T13:46:26;9.45;;;5.63;;
51214;SDS011;63849;47.546;19.254;2023-02-27T14:04:18;10.70;;;6.35;;
51214;SDS011;63849;47.546;19.254;2023-02-27T14:06:46;9.35;;;5.40;;
51214;SDS011;63849;47.546;19.254;2023-02-27T14:09:15;6.82;;;5.55;;
51214;SDS011;63849;47.546;19.254;2023-02-27T14:11:52;11.55;;;8.13;;
51214;SDS011;63849;47.546;19.254;2023-02-27T14:14:43;9.07;;;6.80;;
51214;SDS011;63849;47.546;19.254;2023-02-27T14:17:37;10.38;;;9.25;;
51214;SDS011;63849;47.546;19.254;2023-02-27T14:20:13;8.07;;;5.30;;
51214;SDS011;63849;47.546;19.254;2023-02-27T14:25:58;8.80;;;5.43;;
51214;SDS011;63849;47.546;19.254;2023-02-27T14:28:48;10.00;;;5.63;;
51214;SDS011;63849;47.546;19.254;2023-02-27T14:34:04;9.50;;;6.32;;
51214;SDS011;63849;47.546;19.254;2023-02-27T14:36:51;9.77;;;6.40;;
51214;SDS011;63849;47.546;19.254;2023-02-27T14:42:00;6.75;;;5.25;;
51214;SDS011;63849;47.546;19.254;2023-02-27T14:44:37;8.95;;;5.80;;
51214;SDS011;63849;47.546;19.254;2023-02-27T14:47:07;21.08;;;12.85;;
51214;SDS011;63849;47.546;19.254;2023-02-27T14:49:57;10.10;;;6.70;;
51214;SDS011;63849;47.546;19.254;2023-02-27T14:52:26;9.98;;;6.45;;
51214;SDS011;63849;47.546;19.254;2023-02-27T14:55:05;14.07;;;8.45;;
51214;SDS011;63849;47.546;19.254;2023-02-27T14:57:39;13.32;;;10.45;;
51214;SDS011;63849;47.546;19.254;2023-02-27T15:00:31;11.77;;;8.75;;
51214;SDS011;63849;47.546;19.254;2023-02-27T15:03:21;7.57;;;5.53;;
51214;SDS011;63849;47.546;19.254;2023-02-27T15:05:48;7.90;;;5.05;;
51214;SDS011;63849;47.546;19.254;2023-02-27T15:08:20;7.75;;;5.18;;
51214;SDS011;63849;47.546;19.254;2023-02-27T15:10:52;9.93;;;6.97;;
51214;SDS011;63849;47.546;19.254;2023-02-27T15:15:48;7.75;;;5.93;;
51214;SDS011;63849;47.546;19.254;2023-02-27T15:18:16;7.78;;;5.80;;
51214;SDS011;63849;47.546;19.254;2023-02-27T15:20:54;8.75;;;5.07;;
51214;SDS011;63849;47.546;19.254;2023-02-27T15:23:23;11.93;;;6.60;;
51214;SDS011;63849;47.546;19.254;2023-02-27T15:25:55;9.32;;;6.25;;
51214;SDS011;63849;47.546;19.254;2023-02-27T15:28:23;9.40;;;5.13;;
51214;SDS011;63849;47.546;19.254;2023-02-27T15:30:52;7.82;;;5.20;;
51214;SDS011;63849;47.546;19.254;2023-02-27T15:33:20;8.65;;;5.20;;
51214;SDS011;63849;47.546;19.254;2023-02-27T15:35:53;26.33;;;11.40;;
51214;SDS011;63849;47.546;19.254;2023-02-27T15:38:24;13.35;;;7.43;;
51214;SDS011;63849;47.546;19.254;2023-02-27T15:40:51;15.32;;;8.32;;
51214;SDS011;63849;47.546;19.254;2023-02-27T15:43:18;10.63;;;6.55;;
51214;SDS011;63849;47.546;19.254;2023-02-27T15:45:46;17.98;;;8.77;;
51214;SDS011;63849;47.546;19.254;2023-02-27T15:48:15;26.27;;;11.88;;
51214;SDS011;63849;47.546;19.254;2023-02-27T15:50:46;23.17;;;11.95;;
51214;SDS011;63849;47.546;19.254;2023-02-27T15:53:18;15.88;;;8.50;;
51214;SDS011;63849;47.546;19.254;2023-02-27T15:55:48;18.63;;;9.82;;
51214;SDS011;63849;47.546;19.254;2023-02-27T15:58:26;14.43;;;7.88;;
51214;SDS011;63849;47.546;19.254;2023-02-27T16:01:27;16.23;;;8.30;;
51214;SDS011;63849;47.546;19.254;2023-02-27T16:03:48;11.80;;;7.00;;
51214;SDS011;63849;47.546;19.254;2023-02-27T16:06:36;11.73;;;6.88;;
51214;SDS011;63849;47.546;19.254;2023-02-27T16:09:05;12.40;;;7.03;;
51214;SDS011;63849;47.546;19.254;2023-02-27T16:11:44;9.50;;;5.78;;
51214;SDS011;63849;47.546;19.254;2023-02-27T16:19:54;27.58;;;11.38;;
51214;SDS011;63849;47.546;19.254;2023-02-27T16:22:21;19.20;;;11.43;;
51214;SDS011;63849;47.546;19.254;2023-02-27T16:24:47;24.25;;;12.40;;
51214;SDS011;63849;47.546;19.254;2023-02-27T16:27:15;27.92;;;14.40;;
51214;SDS011;63849;47.546;19.254;2023-02-27T16:29:55;28.30;;;14.93;;
51214;SDS011;63849;47.546;19.254;2023-02-27T16:32:31;29.33;;;16.27;;
51214;SDS011;63849;47.546;19.254;2023-02-27T16:35:14;34.42;;;17.45;;
51214;SDS011;63849;47.546;19.254;2023-02-27T16:37:42;34.67;;;18.58;;
51214;SDS011;63849;47.546;19.254;2023-02-27T16:42:44;32.97;;;16.67;;
51214;SDS011;63849;47.546;19.254;2023-02-27T16:45:14;24.60;;;14.70;;
51214;SDS011;63849;47.546;19.254;2023-02-27T16:47:54;28.58;;;15.40;;
51214;SDS011;63849;47.546;19.254;2023-02-27T16:50:23;41.65;;;19.35;;
51214;SDS011;63849;47.546;19.254;2023-02-27T16:52:53;26.05;;;14.25;;
51214;SDS011;63849;47.546;19.254;2023-02-27T16:55:19;26.50;;;13.18;;
51214;SDS011;63849;47.546;19.254;2023-02-27T16:57:45;33.33;;;17.17;;
51214;SDS011;63849;47.546;19.254;2023-02-27T17:00:12;85.10;;;37.58;;
51214;SDS011;63849;47.546;19.254;2023-02-27T17:02:39;80.95;;;36.47;;
51214;SDS011;63849;47.546;19.254;2023-02-27T17:05:04;71.07;;;33.13;;
51214;SDS011;63849;47.546;19.254;2023-02-27T17:07:31;62.03;;;29.00;;
51214;SDS011;63849;47.546;19.254;2023-02-27T17:09:57;59.83;;;30.48;;
51214;SDS011;63849;47.546;19.254;2023-02-27T17:12:24;52.97;;;28.20;;
51214;SDS011;63849;47.546;19.254;2023-02-27T17:14:50;49.28;;;25.42;;
51214;SDS011;63849;47.546;19.254;2023-02-27T17:17:16;49.28;;;26.58;;
51214;SDS011;63849;47.546;19.254;2023-02-27T17:19:42;55.75;;;26.48;;
51214;SDS011;63849;47.546;19.254;2023-02-27T17:22:08;52.55;;;28.20;;
51214;SDS011;63849;47.546;19.254;2023-02-27T17:24:34;58.70;;;30.25;;
51214;SDS011;63849;47.546;19.254;2023-02-27T17:27:02;86.50;;;44.35;;
51214;SDS011;63849;47.546;19.254;2023-02-27T17:29:29;139.23;;;80.82;;
51214;SDS011;63849;47.546;19.254;2023-02-27T17:31:55;110.55;;;58.90;;
51214;SDS011;63849;47.546;19.254;2023-02-27T17:34:21;96.38;;;51.40;;
51214;SDS011;63849;47.546;19.254;2023-02-27T17:36:47;88.53;;;53.15;;
51214;SDS011;63849;47.546;19.254;2023-02-27T17:39:13;97.57;;;56.85;;
51214;SDS011;63849;47.546;19.254;2023-02-27T17:41:42;111.00;;;61.42;;
51214;SDS011;63849;47.546;19.254;2023-02-27T17:44:12;134.27;;;75.85;;